logo
Search for airport 
image banner adimage banner adimage banner ad
image banner ad

FLCM - Chimbwi

Located in Chikuni, Zambia

ICAO - , IATA -

Data provided by Airmate  

General information

Coordinates: S11°58'6" E30°15'12"
Elevation is 3844 feet MSL.
Magnetic variation is -3° East
View others Airports in North-Western Province

Operational data

Special qualification required
Current time UTC:
Current local time:
Weather at : - ( 0 km )
METAR: YPKG 130712Z AUTO 12011KT 9999 -SHRA SCT012 SCT031 SCT043 16/14 Q1018
View NOTAMs / SUP AIP / TFR affecting this airport [VIEW]
Communications frequencies: [VIEW]

Runways:

RWY identifierQFULength (ft)Width (ft)SurfaceLDA (ft)
0662°3010131GRAS
24242°3010131GRAS

Airport contact information

Address: Chikuni Zambia

Satellite view of FLCM